Racecast

Austin Stephen

Cheyenne Central (CO) · 12 · EASTWY D4A4A · Compare head to head

Athlete rating 123.8 2019 TF season
Best race 129.3 TF
Races 63
Seasons 5 2015 — 2019

RankedNation #9189·WY #29·WY D4A #20·EAST #9·Team #4 ?

Speed rating — all races

Cross Country

XC speed rating

2018 XC 123.5

Cheyenne Central (CO) · Grade 12

Date Meet Event Result Place Rating Difficulty PR/SR Flags
2018-10-20 Sheridan VA Medical Center 5000m 16:58.4 10th · 1st on team 125.7 +0.027 ★CR CSR RSR
2018-10-11 CAM-PLEX Park 5000m 17:25 4th · 2nd on team 123.2 +0.036 ★CR CSR
2018-10-05 Prairie View Golf Course 5000m 17:11.5 8th · 1st on team 123.5 +0.023 ★CR CSR
2018-09-28 Margaret W. Carpenter Recreation Center 5000m 16:57 35th · 2nd on team 123.3 +0.014 ★PR ★CR SR CSR
2018-09-21 North Lake Park 5000m 17:23 14th · 1st on team 124.0 +0.041 ★CR SR CSR RSR
2018-08-31 Adams County Regional Park 5000m 17:57 12th · 1st on team 122.1 +0.048 ★CR SR CSR
2018-08-24 Casper Mountain Road 5000m 18:31.2 6th · 1st on team 122.8 +0.104 ★CR SR CSR RSR

2017 XC 119.0

Cheyenne Central (CO) · Grade 11

Date Meet Event Result Place Rating Difficulty PR/SR Flags
2017-10-21 Sheridan VA Medical Center 5000m 17:23.9 23rd · 1st on team 121.5 +0.027 CR R CSR RSR
2017-10-13 Prairie View Golf Course 5000m 17:22.1 6th · 1st on team 121.2 +0.023 CR R CSR RSR
2017-09-29 Margaret W. Carpenter Recreation Center 5000m 17:14 33rd · 1st on team 120.9 +0.014 PR CR R SR CSR RSR
2017-09-08 Heritage High School 5000m 17:29 77th · 3rd on team 117.5 -0.001 PR ★CR SR CSR RSR
2017-09-01 Adams County Regional Park 5000m 18:39 19th · 1st on team 115.6 +0.048 CR CSR
2017-08-25 Cherry Creek State Park 5000m 18:12 28th · 1st on team 117.2 +0.033 PR ★CR SR CSR RSR

2016 XC 111.4

Cheyenne Central (CO) · Grade 10

Date Meet Event Result Place Rating Difficulty PR/SR Flags
2016-10-14 Prairie View Golf Course 5000m 19:08.7 5th · 3rd on team 110.4 +0.023 CR CSR
2016-09-30 Margaret W. Carpenter Recreation Center 5000m 18:39 113th · 10th on team 112.6 +0.014 CR CSR
2016-09-17 Fort Collins High School 5000m 18:36 21st · 3rd on team 113.7 +0.023 PR ★CR R SR CSR RSR
2016-09-09 Heritage High School 5000m 18:42 53rd · 5th on team 110.8 -0.001 PR CR R SR CSR RSR
2016-09-02 Adams County Regional Park 5000m 19:28 84th · 12th on team 109.3 +0.048 CR R SR CSR RSR

2015 XC 98.5

Cheyenne Central (CO) · Grade 9

Date Meet Event Result Place Rating Difficulty PR/SR Flags
2015-10-09 Prairie View Golf Course 5000m 19:25.4 10th · 5th on team 108.7 +0.023 PR CR R SR CSR RSR
2015-10-06 Northwest Open Space 5000m 19:52 70th · 7th on team 105.6 +0.020 PR ★CR R SR CSR RSR
2015-10-02 Margaret W. Carpenter Recreation Center 5000m 20:16 52nd · 3rd on team 103.7 +0.014 PR CR R SR CSR RSR
2015-09-25 North Lake Park 4000m 17:05 40th · 5th on team 75.8 +0.019 ★PR ★CR R SR CSR RSR
2015-09-04 Adams County Regional Park 5000m 21:36 140th · 13th on team +0.048 PR CR SR CSR

Track & Field

TF speed rating

2019 TF 120.8

Cheyenne Central (CO) · Grade 12

Date Meet Event Result Place Rating Difficulty PR/SR Flags
2019-05-18 Wyoming State Championships 1600m 4:46.32 20th · 2nd on team 122.8 -0.012
2019-05-18 Wyoming State Championships 800m 2:05.61 12th · 2nd on team 124.8 -0.012
2019-05-11 Wyoming 1A-2A-4A East Regional 800m 2:01.74 8th · 2nd on team 124.5 -0.039 ★PR SR
2019-05-03 Wiseman Invite 1600m 4:55.62 3rd · 2nd on team 118.7 -0.007
2019-05-03 Wiseman Invite 800m 2:04.66 2nd · 2nd on team 125.3 -0.007 SR RSR
2019-04-27 Liberty Bell Invitational 1600m 4:42.21 18th · 2nd on team 123.5 -0.015 ★PR SR
2019-04-18 Cheyenne Central Invitational 800m 2:16.86 2nd · 2nd on team 116.3 +0.010
2019-04-18 Cheyenne Central Invitational 1600m 4:55.19 2nd · 2nd on team 121.2 +0.010 SR
2019-04-06 David S. D'Evelyn Invitational 3200m 10:43.95 5th · 1st on team 117.9 -0.011
2019-03-30 Altitude Running Invitational 3200m 10:29.64 9th · 2nd on team 120.3 -0.012 ★PR SR
2019-03-30 Altitude Running Invitational 800m 2:08.89 8th · 2nd on team 121.0 -0.012
2019-03-22 Runners Roost of Fort Collins Invitational 1600m 4:57.78 9th · 1st on team 118.1 -0.009 SR
2019-03-01 Wyoming State Indoor Championships 800m 2:06.32 8th · 1st on team 123.6 -0.023 SR RSR
2019-01-12 Natrona Indoor Invitational 1600m 5:03.53 4th · 1st on team 116.4 -0.003 SR RSR
2019-01-12 Natrona Indoor Invitational 800m 2:14.52 3rd · 1st on team 116.9 -0.003 SR RSR

2018 TF 120.2

Cheyenne Central (CO) · Grade 11

Date Meet Event Result Place Rating Difficulty PR/SR Flags
2018-05-11 WHSAA 4A East Regional 1600m 4:44.34 7th · 1st on team 125.5 +0.010 PR R SR RSR
2018-05-11 WHSAA 4A East Regional 800m 2:02.82 7th · 2nd on team 129.3 +0.010 PR ★R SR RSR
2018-05-04 2018 Wiseman Invitational 800m 2:06.21 2nd · 1st on team 122.8 -0.012 PR R SR RSR
2018-05-04 2018 Wiseman Invitational 1600m 4:49.06 3rd · 1st on team 120.7 -0.012 PR SR
2018-04-28 Casper Invite 1600m 4:53.3 7th · 1st on team 117.4 -0.027 SR
2018-04-28 Kelly Walsh Invitational 1600m 4:53.3 7th · 1st on team 118.7 -0.012
2018-04-21 Cheyenne Central Invitational 1600m 5:03.15 4th · 2nd on team 117.7 +0.010
2018-04-21 Cheyenne Central Invitational 800m 2:13.3 5th · 3rd on team 119.1 +0.010 PR SR RSR
2018-04-12 Okie Blanchard Invitational 1600m 5:00.07 8th · 1st on team 118.4 +0.006 RSR
2018-04-07 David S. D'Evelyn Invitational 1600m 4:58.2 9th · 1st on team 117.5 -0.011 SR RSR
2018-03-23 Runners Roost of Fort Collins Invitational 3200m 10:56.74 14th · 2nd on team 115.1 -0.012 PR SR RSR

2017 TF 113.5

Cheyenne Central (CO) · Grade 10

Date Meet Event Result Place Rating Difficulty PR/SR Flags
2017-05-13 WHSAA 4A East Regional 1600m 4:52.79 11th · 2nd on team 119.0 -0.012 PR R SR RSR
2017-05-05 Wiseman Invite 1600m 4:58.2 6th · 1st on team 116.7 -0.012 PR R SR RSR
2017-05-02 Central Freshmen/Sophomore 800m 2:20.9 4th · 1st on team 112.3 +0.010
2017-05-02 Central Freshmen/Sophomore 1600m 5:13.15 2nd · 1st on team 113.6 +0.010
2017-04-28 LoboCat Invitational 1600m 5:12.35 24th · 1st on team 111.5 -0.009
2017-04-15 Mountain Range Mustang Invitational 1600m 5:03.84 24th · 2nd on team 115.5 -0.006 PR R SR RSR
2017-04-13 South Twilight 800m 2:16.7 9th · 3rd on team 114.9 -0.001 PR R SR RSR
2017-04-13 South Twilight 1600m 5:20.82 7th · 2nd on team 110.1 -0.001
2017-04-07 Okie Blanchard Invitational 1600m 5:17.14 4th · 2nd on team 111.8 +0.006 PR SR RSR
2017-02-04 Kevin Salverson Invitational 1600m 5:24.85 2nd · 2nd on team 109.5 +0.010 PR SR RSR

2016 TF 105.8

Cheyenne Central (CO) · Grade 9

Date Meet Event Result Place Rating Difficulty PR/SR Flags
2016-04-22 Pine Bluffs Invite 1600m 5:26.52 3rd · 1st on team 108.3 +0.006 PR SR RSR
2016-04-15 Burns Invite 3200m 12:21.08 9th · 4th on team 102.4 -0.007 PR SR
2016-04-08 Okie Blanch Invite 800m 2:27.99 4th · 1st on team 105.9 +0.006 PR SR RSR
2016-04-08 Okie Blanch Invite 1600m 5:30.81 5th · 3rd on team 106.8 +0.006 PR SR RSR